Chicago, Illinois
Traffic Map
Current Weather Conditions
Chicago, Illinois
Broken Clouds
Broken Clouds
13°
Feels Like: 13°
Wind Chill: 13° Ceiling: 4900
Heat Index: 13° Visibility: 10mi
Dew Point: Wind: 12mph
Humidity: 49% Direction: 30° (NNE)
Pressure: 30.02in Gusts: 0mph
Raw Report DataKMDW 022253Z 03010KT 10SM BKN049 BKN250 13/02 A3002 RMK AO2 SLP167 T01280022
Traffic Incident Summary
Active as of:
Severity:
Category:
InformationThere was an issue retrieving the traffic information for this location. Please try a different location or try again shortly.
Advertisements
Track Severe Weather on mobile